sensor_id;sensor_type;location;lat;lon;timestamp;P1;durP1;ratioP1;P2;durP2;ratioP2
56493;SDS011;42392;42.648;27.652;2024-01-10T00:00:00;5.97;;;2.17;;
56493;SDS011;42392;42.648;27.652;2024-01-10T00:02:03;6.88;;;2.92;;
56493;SDS011;42392;42.648;27.652;2024-01-10T00:04:05;7.90;;;2.85;;
56493;SDS011;42392;42.648;27.652;2024-01-10T00:06:07;6.88;;;2.67;;
56493;SDS011;42392;42.648;27.652;2024-01-10T00:08:09;7.40;;;2.95;;
56493;SDS011;42392;42.648;27.652;2024-01-10T00:10:11;6.50;;;2.63;;
56493;SDS011;42392;42.648;27.652;2024-01-10T00:12:13;5.97;;;1.98;;
56493;SDS011;42392;42.648;27.652;2024-01-10T00:14:15;6.95;;;2.63;;
56493;SDS011;42392;42.648;27.652;2024-01-10T00:16:18;6.38;;;2.72;;
56493;SDS011;42392;42.648;27.652;2024-01-10T00:18:20;6.30;;;2.30;;
56493;SDS011;42392;42.648;27.652;2024-01-10T00:20:22;6.10;;;2.17;;
56493;SDS011;42392;42.648;27.652;2024-01-10T00:22:24;8.68;;;2.53;;
56493;SDS011;42392;42.648;27.652;2024-01-10T00:24:26;8.63;;;2.95;;
56493;SDS011;42392;42.648;27.652;2024-01-10T00:26:28;21.25;;;7.43;;
56493;SDS011;42392;42.648;27.652;2024-01-10T00:28:30;14.57;;;4.35;;
56493;SDS011;42392;42.648;27.652;2024-01-10T00:30:32;13.15;;;5.32;;
56493;SDS011;42392;42.648;27.652;2024-01-10T00:32:34;6.78;;;3.03;;
56493;SDS011;42392;42.648;27.652;2024-01-10T00:34:36;11.95;;;4.97;;
56493;SDS011;42392;42.648;27.652;2024-01-10T00:36:38;8.63;;;3.35;;
56493;SDS011;42392;42.648;27.652;2024-01-10T00:38:40;7.30;;;3.10;;
56493;SDS011;42392;42.648;27.652;2024-01-10T00:40:42;7.47;;;2.85;;
56493;SDS011;42392;42.648;27.652;2024-01-10T00:42:44;5.50;;;2.35;;
56493;SDS011;42392;42.648;27.652;2024-01-10T00:44:46;9.73;;;3.17;;
56493;SDS011;42392;42.648;27.652;2024-01-10T00:46:48;7.05;;;3.42;;
56493;SDS011;42392;42.648;27.652;2024-01-10T00:48:50;7.80;;;1.88;;
56493;SDS011;42392;42.648;27.652;2024-01-10T00:50:52;10.23;;;2.95;;
56493;SDS011;42392;42.648;27.652;2024-01-10T00:52:54;9.35;;;3.30;;
56493;SDS011;42392;42.648;27.652;2024-01-10T00:54:56;6.47;;;2.65;;
56493;SDS011;42392;42.648;27.652;2024-01-10T00:56:58;6.90;;;3.08;;
56493;SDS011;42392;42.648;27.652;2024-01-10T00:59:00;7.50;;;2.97;;
56493;SDS011;42392;42.648;27.652;2024-01-10T01:01:02;8.90;;;3.85;;
56493;SDS011;42392;42.648;27.652;2024-01-10T01:03:05;7.40;;;3.35;;
56493;SDS011;42392;42.648;27.652;2024-01-10T01:05:08;7.90;;;3.72;;
56493;SDS011;42392;42.648;27.652;2024-01-10T01:07:10;9.77;;;4.22;;
56493;SDS011;42392;42.648;27.652;2024-01-10T01:09:12;9.93;;;3.75;;
56493;SDS011;42392;42.648;27.652;2024-01-10T01:11:16;8.35;;;3.30;;
56493;SDS011;42392;42.648;27.652;2024-01-10T01:13:18;13.25;;;4.03;;
56493;SDS011;42392;42.648;27.652;2024-01-10T01:15:20;7.60;;;3.10;;
56493;SDS011;42392;42.648;27.652;2024-01-10T01:17:22;10.48;;;3.85;;
56493;SDS011;42392;42.648;27.652;2024-01-10T01:19:24;8.25;;;3.67;;
56493;SDS011;42392;42.648;27.652;2024-01-10T01:21:27;7.55;;;3.40;;
56493;SDS011;42392;42.648;27.652;2024-01-10T01:23:28;9.27;;;3.67;;
56493;SDS011;42392;42.648;27.652;2024-01-10T01:25:42;9.18;;;3.92;;
56493;SDS011;42392;42.648;27.652;2024-01-10T01:27:44;8.68;;;3.17;;
56493;SDS011;42392;42.648;27.652;2024-01-10T01:29:46;12.00;;;2.83;;
56493;SDS011;42392;42.648;27.652;2024-01-10T01:31:48;8.55;;;4.10;;
56493;SDS011;42392;42.648;27.652;2024-01-10T01:33:51;6.93;;;2.90;;
56493;SDS011;42392;42.648;27.652;2024-01-10T01:35:53;12.10;;;3.75;;
56493;SDS011;42392;42.648;27.652;2024-01-10T01:37:55;7.20;;;3.60;;
56493;SDS011;42392;42.648;27.652;2024-01-10T01:39:57;12.60;;;4.05;;
56493;SDS011;42392;42.648;27.652;2024-01-10T01:41:59;9.32;;;3.92;;
56493;SDS011;42392;42.648;27.652;2024-01-10T01:44:02;13.35;;;4.70;;
56493;SDS011;42392;42.648;27.652;2024-01-10T01:46:04;9.65;;;3.67;;
56493;SDS011;42392;42.648;27.652;2024-01-10T01:48:06;15.13;;;4.28;;
56493;SDS011;42392;42.648;27.652;2024-01-10T01:50:09;12.10;;;4.72;;
56493;SDS011;42392;42.648;27.652;2024-01-10T01:52:12;6.40;;;2.42;;
56493;SDS011;42392;42.648;27.652;2024-01-10T01:54:14;6.55;;;2.70;;
56493;SDS011;42392;42.648;27.652;2024-01-10T01:56:16;6.60;;;2.40;;
56493;SDS011;42392;42.648;27.652;2024-01-10T01:58:18;6.85;;;2.70;;
56493;SDS011;42392;42.648;27.652;2024-01-10T02:00:21;7.75;;;2.70;;
56493;SDS011;42392;42.648;27.652;2024-01-10T02:02:24;8.88;;;3.63;;
56493;SDS011;42392;42.648;27.652;2024-01-10T02:04:26;7.40;;;2.58;;
56493;SDS011;42392;42.648;27.652;2024-01-10T02:06:31;6.57;;;2.72;;
56493;SDS011;42392;42.648;27.652;2024-01-10T02:10:36;7.05;;;2.80;;
56493;SDS011;42392;42.648;27.652;2024-01-10T02:12:38;15.35;;;3.72;;
56493;SDS011;42392;42.648;27.652;2024-01-10T02:14:40;10.38;;;3.47;;
56493;SDS011;42392;42.648;27.652;2024-01-10T02:16:42;10.55;;;3.60;;
56493;SDS011;42392;42.648;27.652;2024-01-10T02:18:44;8.27;;;3.70;;
56493;SDS011;42392;42.648;27.652;2024-01-10T02:20:46;8.10;;;3.17;;
56493;SDS011;42392;42.648;27.652;2024-01-10T02:22:48;6.35;;;2.88;;
56493;SDS011;42392;42.648;27.652;2024-01-10T02:24:53;7.10;;;2.40;;
56493;SDS011;42392;42.648;27.652;2024-01-10T02:26:55;8.82;;;3.75;;
56493;SDS011;42392;42.648;27.652;2024-01-10T02:28:57;13.40;;;3.50;;
56493;SDS011;42392;42.648;27.652;2024-01-10T02:31:00;5.35;;;2.05;;
56493;SDS011;42392;42.648;27.652;2024-01-10T02:33:02;7.05;;;2.80;;
56493;SDS011;42392;42.648;27.652;2024-01-10T02:35:05;6.70;;;2.35;;
56493;SDS011;42392;42.648;27.652;2024-01-10T02:37:07;9.85;;;3.45;;
56493;SDS011;42392;42.648;27.652;2024-01-10T02:39:09;7.25;;;2.97;;
56493;SDS011;42392;42.648;27.652;2024-01-10T02:41:11;10.13;;;3.25;;
56493;SDS011;42392;42.648;27.652;2024-01-10T02:43:13;8.75;;;3.70;;
56493;SDS011;42392;42.648;27.652;2024-01-10T02:45:15;7.60;;;3.10;;
56493;SDS011;42392;42.648;27.652;2024-01-10T02:47:18;7.57;;;2.65;;
56493;SDS011;42392;42.648;27.652;2024-01-10T02:49:20;7.10;;;3.00;;
56493;SDS011;42392;42.648;27.652;2024-01-10T02:51:23;9.35;;;2.60;;
56493;SDS011;42392;42.648;27.652;2024-01-10T02:53:28;11.40;;;3.13;;
56493;SDS011;42392;42.648;27.652;2024-01-10T02:55:31;11.43;;;3.33;;
56493;SDS011;42392;42.648;27.652;2024-01-10T02:57:33;8.98;;;3.00;;
56493;SDS011;42392;42.648;27.652;2024-01-10T02:59:35;6.03;;;2.58;;
56493;SDS011;42392;42.648;27.652;2024-01-10T03:01:37;11.43;;;3.15;;
56493;SDS011;42392;42.648;27.652;2024-01-10T03:03:41;7.75;;;2.60;;
56493;SDS011;42392;42.648;27.652;2024-01-10T03:05:44;9.45;;;3.30;;
56493;SDS011;42392;42.648;27.652;2024-01-10T03:07:46;7.15;;;2.60;;
56493;SDS011;42392;42.648;27.652;2024-01-10T03:09:48;10.48;;;3.92;;
56493;SDS011;42392;42.648;27.652;2024-01-10T03:11:50;7.30;;;2.70;;
56493;SDS011;42392;42.648;27.652;2024-01-10T03:14:00;11.63;;;3.90;;
56493;SDS011;42392;42.648;27.652;2024-01-10T03:16:05;10.07;;;4.10;;
56493;SDS011;42392;42.648;27.652;2024-01-10T03:18:07;8.07;;;3.60;;
56493;SDS011;42392;42.648;27.652;2024-01-10T03:20:10;7.28;;;2.97;;
56493;SDS011;42392;42.648;27.652;2024-01-10T03:22:12;7.93;;;2.35;;
56493;SDS011;42392;42.648;27.652;2024-01-10T03:24:14;5.97;;;2.40;;
56493;SDS011;42392;42.648;27.652;2024-01-10T03:26:16;6.32;;;2.30;;
56493;SDS011;42392;42.648;27.652;2024-01-10T03:28:18;6.72;;;2.85;;
56493;SDS011;42392;42.648;27.652;2024-01-10T03:30:20;7.03;;;2.72;;
56493;SDS011;42392;42.648;27.652;2024-01-10T03:32:25;9.18;;;3.65;;
56493;SDS011;42392;42.648;27.652;2024-01-10T03:34:27;5.93;;;2.38;;
56493;SDS011;42392;42.648;27.652;2024-01-10T03:36:29;9.32;;;2.53;;
56493;SDS011;42392;42.648;27.652;2024-01-10T03:38:31;6.63;;;2.53;;
56493;SDS011;42392;42.648;27.652;2024-01-10T03:40:34;7.43;;;2.05;;
56493;SDS011;42392;42.648;27.652;2024-01-10T03:42:37;8.38;;;3.25;;
56493;SDS011;42392;42.648;27.652;2024-01-10T03:44:38;6.50;;;2.80;;
56493;SDS011;42392;42.648;27.652;2024-01-10T03:46:41;8.60;;;2.53;;
56493;SDS011;42392;42.648;27.652;2024-01-10T03:48:43;7.40;;;2.20;;
56493;SDS011;42392;42.648;27.652;2024-01-10T03:50:53;8.95;;;3.67;;
56493;SDS011;42392;42.648;27.652;2024-01-10T03:52:55;8.45;;;3.00;;
56493;SDS011;42392;42.648;27.652;2024-01-10T03:54:57;8.40;;;3.42;;
56493;SDS011;42392;42.648;27.652;2024-01-10T03:56:59;10.85;;;3.97;;
56493;SDS011;42392;42.648;27.652;2024-01-10T03:59:02;13.43;;;5.10;;
56493;SDS011;42392;42.648;27.652;2024-01-10T04:01:07;18.83;;;7.82;;
56493;SDS011;42392;42.648;27.652;2024-01-10T04:03:10;10.18;;;3.95;;
56493;SDS011;42392;42.648;27.652;2024-01-10T04:05:12;10.13;;;4.88;;
56493;SDS011;42392;42.648;27.652;2024-01-10T04:07:15;14.45;;;4.10;;
56493;SDS011;42392;42.648;27.652;2024-01-10T04:09:17;12.07;;;4.30;;
56493;SDS011;42392;42.648;27.652;2024-01-10T04:11:19;13.73;;;5.03;;
56493;SDS011;42392;42.648;27.652;2024-01-10T04:13:21;13.18;;;5.00;;
56493;SDS011;42392;42.648;27.652;2024-01-10T04:15:23;11.57;;;4.53;;
56493;SDS011;42392;42.648;27.652;2024-01-10T04:17:25;8.18;;;3.15;;
56493;SDS011;42392;42.648;27.652;2024-01-10T04:19:27;9.57;;;3.38;;
56493;SDS011;42392;42.648;27.652;2024-01-10T04:21:29;13.30;;;5.57;;
56493;SDS011;42392;42.648;27.652;2024-01-10T04:23:31;16.33;;;7.30;;
56493;SDS011;42392;42.648;27.652;2024-01-10T04:25:35;13.55;;;5.97;;
56493;SDS011;42392;42.648;27.652;2024-01-10T04:27:37;9.23;;;4.13;;
56493;SDS011;42392;42.648;27.652;2024-01-10T04:29:40;7.57;;;3.00;;
56493;SDS011;42392;42.648;27.652;2024-01-10T04:31:42;7.50;;;3.70;;
56493;SDS011;42392;42.648;27.652;2024-01-10T04:33:44;8.95;;;3.47;;
56493;SDS011;42392;42.648;27.652;2024-01-10T04:35:46;10.50;;;4.28;;
56493;SDS011;42392;42.648;27.652;2024-01-10T04:37:48;13.48;;;5.05;;
56493;SDS011;42392;42.648;27.652;2024-01-10T04:39:51;12.85;;;5.60;;
56493;SDS011;42392;42.648;27.652;2024-01-10T04:41:53;11.60;;;5.20;;
56493;SDS011;42392;42.648;27.652;2024-01-10T04:43:55;12.25;;;4.88;;
56493;SDS011;42392;42.648;27.652;2024-01-10T04:45:57;7.85;;;2.75;;
56493;SDS011;42392;42.648;27.652;2024-01-10T04:47:59;9.57;;;4.45;;
56493;SDS011;42392;42.648;27.652;2024-01-10T04:50:01;9.35;;;3.75;;
56493;SDS011;42392;42.648;27.652;2024-01-10T04:52:03;8.75;;;3.42;;
56493;SDS011;42392;42.648;27.652;2024-01-10T04:54:06;13.60;;;5.28;;
56493;SDS011;42392;42.648;27.652;2024-01-10T04:56:08;9.10;;;3.40;;
56493;SDS011;42392;42.648;27.652;2024-01-10T04:58:10;14.48;;;5.40;;
56493;SDS011;42392;42.648;27.652;2024-01-10T05:00:12;8.15;;;3.13;;
56493;SDS011;42392;42.648;27.652;2024-01-10T05:02:14;14.32;;;4.82;;
56493;SDS011;42392;42.648;27.652;2024-01-10T05:04:17;17.38;;;6.47;;
56493;SDS011;42392;42.648;27.652;2024-01-10T05:06:19;18.27;;;6.78;;
56493;SDS011;42392;42.648;27.652;2024-01-10T05:08:21;9.02;;;3.53;;
56493;SDS011;42392;42.648;27.652;2024-01-10T05:10:23;12.15;;;3.95;;
56493;SDS011;42392;42.648;27.652;2024-01-10T05:12:25;10.60;;;3.72;;
56493;SDS011;42392;42.648;27.652;2024-01-10T05:14:27;10.57;;;4.45;;
56493;SDS011;42392;42.648;27.652;2024-01-10T05:16:29;9.45;;;4.28;;
56493;SDS011;42392;42.648;27.652;2024-01-10T05:18:32;9.43;;;3.60;;
56493;SDS011;42392;42.648;27.652;2024-01-10T05:20:34;16.85;;;6.22;;
56493;SDS011;42392;42.648;27.652;2024-01-10T05:22:36;9.38;;;3.88;;
56493;SDS011;42392;42.648;27.652;2024-01-10T05:24:38;9.50;;;3.10;;
56493;SDS011;42392;42.648;27.652;2024-01-10T05:26:40;9.68;;;3.97;;
56493;SDS011;42392;42.648;27.652;2024-01-10T05:28:42;7.53;;;2.45;;
56493;SDS011;42392;42.648;27.652;2024-01-10T05:30:44;4.25;;;1.90;;
56493;SDS011;42392;42.648;27.652;2024-01-10T05:32:46;12.55;;;3.63;;
56493;SDS011;42392;42.648;27.652;2024-01-10T05:34:48;7.38;;;2.47;;
56493;SDS011;42392;42.648;27.652;2024-01-10T05:36:51;6.95;;;2.28;;
56493;SDS011;42392;42.648;27.652;2024-01-10T05:39:06;5.57;;;2.47;;
56493;SDS011;42392;42.648;27.652;2024-01-10T05:41:09;8.40;;;3.80;;
56493;SDS011;42392;42.648;27.652;2024-01-10T05:43:11;6.75;;;3.25;;
56493;SDS011;42392;42.648;27.652;2024-01-10T05:45:14;10.35;;;3.47;;
56493;SDS011;42392;42.648;27.652;2024-01-10T05:47:19;10.18;;;3.35;;
56493;SDS011;42392;42.648;27.652;2024-01-10T05:49:21;7.63;;;2.22;;
56493;SDS011;42392;42.648;27.652;2024-01-10T05:51:23;6.20;;;2.42;;
56493;SDS011;42392;42.648;27.652;2024-01-10T05:53:25;7.05;;;2.17;;
56493;SDS011;42392;42.648;27.652;2024-01-10T05:55:28;6.35;;;2.47;;
56493;SDS011;42392;42.648;27.652;2024-01-10T05:57:30;8.23;;;2.63;;
56493;SDS011;42392;42.648;27.652;2024-01-10T05:59:33;8.30;;;3.35;;
56493;SDS011;42392;42.648;27.652;2024-01-10T06:01:37;8.90;;;2.63;;
56493;SDS011;42392;42.648;27.652;2024-01-10T06:03:42;4.93;;;1.90;;
56493;SDS011;42392;42.648;27.652;2024-01-10T06:05:44;6.32;;;2.50;;
56493;SDS011;42392;42.648;27.652;2024-01-10T06:07:46;5.93;;;2.10;;
56493;SDS011;42392;42.648;27.652;2024-01-10T06:09:48;6.72;;;2.80;;
56493;SDS011;42392;42.648;27.652;2024-01-10T06:11:50;4.88;;;1.48;;
56493;SDS011;42392;42.648;27.652;2024-01-10T06:13:52;5.72;;;2.15;;
56493;SDS011;42392;42.648;27.652;2024-01-10T06:15:57;4.88;;;2.30;;
56493;SDS011;42392;42.648;27.652;2024-01-10T06:17:59;4.03;;;1.60;;
56493;SDS011;42392;42.648;27.652;2024-01-10T06:20:02;4.47;;;1.30;;
56493;SDS011;42392;42.648;27.652;2024-01-10T06:22:05;6.47;;;1.83;;
56493;SDS011;42392;42.648;27.652;2024-01-10T06:24:07;7.90;;;3.40;;
56493;SDS011;42392;42.648;27.652;2024-01-10T06:26:09;6.55;;;2.55;;
56493;SDS011;42392;42.648;27.652;2024-01-10T06:28:12;8.40;;;3.45;;
56493;SDS011;42392;42.648;27.652;2024-01-10T06:30:14;9.50;;;2.67;;
56493;SDS011;42392;42.648;27.652;2024-01-10T06:32:16;5.82;;;2.95;;
56493;SDS011;42392;42.648;27.652;2024-01-10T06:34:18;5.50;;;2.67;;
56493;SDS011;42392;42.648;27.652;2024-01-10T06:36:20;9.02;;;3.75;;
56493;SDS011;42392;42.648;27.652;2024-01-10T06:38:22;10.75;;;4.20;;
56493;SDS011;42392;42.648;27.652;2024-01-10T06:40:25;10.68;;;3.38;;
56493;SDS011;42392;42.648;27.652;2024-01-10T06:42:27;10.25;;;4.07;;
56493;SDS011;42392;42.648;27.652;2024-01-10T06:44:29;5.18;;;2.22;;
56493;SDS011;42392;42.648;27.652;2024-01-10T06:46:32;9.07;;;3.72;;
56493;SDS011;42392;42.648;27.652;2024-01-10T06:48:34;9.40;;;3.50;;
56493;SDS011;42392;42.648;27.652;2024-01-10T06:50:41;13.60;;;5.35;;
56493;SDS011;42392;42.648;27.652;2024-01-10T06:52:45;9.68;;;4.10;;
56493;SDS011;42392;42.648;27.652;2024-01-10T06:54:48;10.85;;;4.38;;
56493;SDS011;42392;42.648;27.652;2024-01-10T06:56:50;11.90;;;5.30;;
56493;SDS011;42392;42.648;27.652;2024-01-10T06:58:52;14.02;;;5.95;;
56493;SDS011;42392;42.648;27.652;2024-01-10T07:00:55;8.43;;;3.55;;
56493;SDS011;42392;42.648;27.652;2024-01-10T07:03:00;6.47;;;2.88;;
56493;SDS011;42392;42.648;27.652;2024-01-10T07:05:07;9.40;;;3.42;;
56493;SDS011;42392;42.648;27.652;2024-01-10T07:07:10;15.82;;;5.15;;
56493;SDS011;42392;42.648;27.652;2024-01-10T07:09:13;10.20;;;4.95;;
56493;SDS011;42392;42.648;27.652;2024-01-10T07:11:21;24.27;;;10.40;;
56493;SDS011;42392;42.648;27.652;2024-01-10T07:13:23;20.38;;;9.50;;
56493;SDS011;42392;42.648;27.652;2024-01-10T07:15:25;21.38;;;8.45;;
56493;SDS011;42392;42.648;27.652;2024-01-10T07:17:27;28.70;;;9.98;;
56493;SDS011;42392;42.648;27.652;2024-01-10T07:19:30;24.35;;;9.50;;
56493;SDS011;42392;42.648;27.652;2024-01-10T07:21:32;35.70;;;15.32;;
56493;SDS011;42392;42.648;27.652;2024-01-10T07:23:34;28.27;;;12.68;;
56493;SDS011;42392;42.648;27.652;2024-01-10T07:25:36;16.45;;;6.90;;
56493;SDS011;42392;42.648;27.652;2024-01-10T07:27:40;24.77;;;10.27;;
56493;SDS011;42392;42.648;27.652;2024-01-10T07:29:45;47.22;;;16.25;;
56493;SDS011;42392;42.648;27.652;2024-01-10T07:31:47;23.17;;;9.52;;
56493;SDS011;42392;42.648;27.652;2024-01-10T07:33:52;21.50;;;7.70;;
56493;SDS011;42392;42.648;27.652;2024-01-10T07:35:57;18.50;;;6.40;;
56493;SDS011;42392;42.648;27.652;2024-01-10T07:37:59;13.98;;;6.28;;
56493;SDS011;42392;42.648;27.652;2024-01-10T07:40:01;16.52;;;7.03;;
56493;SDS011;42392;42.648;27.652;2024-01-10T07:44:09;18.85;;;8.35;;
56493;SDS011;42392;42.648;27.652;2024-01-10T07:46:11;13.52;;;5.75;;
56493;SDS011;42392;42.648;27.652;2024-01-10T07:48:13;17.38;;;7.68;;
56493;SDS011;42392;42.648;27.652;2024-01-10T07:50:15;19.58;;;7.72;;
56493;SDS011;42392;42.648;27.652;2024-01-10T07:52:18;29.70;;;12.18;;
56493;SDS011;42392;42.648;27.652;2024-01-10T07:54:24;25.25;;;11.32;;
56493;SDS011;42392;42.648;27.652;2024-01-10T07:56:26;21.65;;;9.50;;
56493;SDS011;42392;42.648;27.652;2024-01-10T07:58:29;22.08;;;10.38;;
56493;SDS011;42392;42.648;27.652;2024-01-10T08:00:31;22.55;;;9.00;;
56493;SDS011;42392;42.648;27.652;2024-01-10T08:02:33;19.58;;;8.60;;
56493;SDS011;42392;42.648;27.652;2024-01-10T08:04:36;20.02;;;8.73;;
56493;SDS011;42392;42.648;27.652;2024-01-10T08:06:37;14.73;;;7.30;;
56493;SDS011;42392;42.648;27.652;2024-01-10T08:08:39;12.93;;;6.55;;
56493;SDS011;42392;42.648;27.652;2024-01-10T08:10:42;21.73;;;8.50;;
56493;SDS011;42392;42.648;27.652;2024-01-10T08:12:44;13.25;;;7.05;;
56493;SDS011;42392;42.648;27.652;2024-01-10T08:14:46;10.60;;;5.90;;
56493;SDS011;42392;42.648;27.652;2024-01-10T08:16:51;10.50;;;5.22;;
56493;SDS011;42392;42.648;27.652;2024-01-10T08:18:56;12.45;;;6.38;;
56493;SDS011;42392;42.648;27.652;2024-01-10T08:20:58;11.70;;;5.88;;
56493;SDS011;42392;42.648;27.652;2024-01-10T08:23:00;11.77;;;4.90;;
56493;SDS011;42392;42.648;27.652;2024-01-10T08:25:02;13.02;;;7.80;;
56493;SDS011;42392;42.648;27.652;2024-01-10T08:27:05;14.00;;;6.53;;
56493;SDS011;42392;42.648;27.652;2024-01-10T08:29:07;24.67;;;9.23;;
56493;SDS011;42392;42.648;27.652;2024-01-10T08:31:09;22.73;;;10.50;;
56493;SDS011;42392;42.648;27.652;2024-01-10T08:33:11;16.20;;;7.20;;
56493;SDS011;42392;42.648;27.652;2024-01-10T08:35:14;14.73;;;6.70;;
56493;SDS011;42392;42.648;27.652;2024-01-10T08:37:16;21.05;;;8.75;;
56493;SDS011;42392;42.648;27.652;2024-01-10T08:39:18;32.10;;;13.00;;
56493;SDS011;42392;42.648;27.652;2024-01-10T08:41:21;13.57;;;6.57;;
56493;SDS011;42392;42.648;27.652;2024-01-10T08:43:23;11.98;;;6.65;;
56493;SDS011;42392;42.648;27.652;2024-01-10T08:45:25;25.52;;;9.63;;
56493;SDS011;42392;42.648;27.652;2024-01-10T08:47:27;14.95;;;5.93;;
56493;SDS011;42392;42.648;27.652;2024-01-10T08:49:33;15.02;;;6.22;;
56493;SDS011;42392;42.648;27.652;2024-01-10T08:51:34;11.90;;;5.75;;
56493;SDS011;42392;42.648;27.652;2024-01-10T08:53:37;9.63;;;4.15;;
56493;SDS011;42392;42.648;27.652;2024-01-10T08:55:39;9.15;;;4.43;;
56493;SDS011;42392;42.648;27.652;2024-01-10T08:57:41;15.55;;;7.97;;
56493;SDS011;42392;42.648;27.652;2024-01-10T08:59:43;14.02;;;6.13;;
56493;SDS011;42392;42.648;27.652;2024-01-10T09:01:45;15.48;;;7.57;;
56493;SDS011;42392;42.648;27.652;2024-01-10T09:03:47;11.85;;;6.18;;
56493;SDS011;42392;42.648;27.652;2024-01-10T09:05:50;19.85;;;8.70;;
56493;SDS011;42392;42.648;27.652;2024-01-10T09:08:08;14.50;;;7.00;;
56493;SDS011;42392;42.648;27.652;2024-01-10T09:10:10;16.85;;;7.90;;
56493;SDS011;42392;42.648;27.652;2024-01-10T09:12:12;19.23;;;10.02;;
56493;SDS011;42392;42.648;27.652;2024-01-10T09:14:14;16.35;;;6.35;;
56493;SDS011;42392;42.648;27.652;2024-01-10T09:16:16;11.55;;;5.53;;
56493;SDS011;42392;42.648;27.652;2024-01-10T09:18:22;11.75;;;4.30;;
56493;SDS011;42392;42.648;27.652;2024-01-10T09:20:24;12.23;;;5.72;;
56493;SDS011;42392;42.648;27.652;2024-01-10T09:22:26;23.02;;;7.72;;
56493;SDS011;42392;42.648;27.652;2024-01-10T09:24:28;16.05;;;6.80;;
56493;SDS011;42392;42.648;27.652;2024-01-10T09:26:31;18.63;;;8.82;;
56493;SDS011;42392;42.648;27.652;2024-01-10T09:28:34;17.67;;;8.00;;
56493;SDS011;42392;42.648;27.652;2024-01-10T09:30:36;19.80;;;8.85;;
56493;SDS011;42392;42.648;27.652;2024-01-10T09:32:42;19.55;;;8.52;;
56493;SDS011;42392;42.648;27.652;2024-01-10T09:34:44;17.38;;;7.80;;
56493;SDS011;42392;42.648;27.652;2024-01-10T09:36:46;17.60;;;7.70;;
56493;SDS011;42392;42.648;27.652;2024-01-10T09:38:49;12.20;;;6.25;;
56493;SDS011;42392;42.648;27.652;2024-01-10T09:40:51;14.48;;;6.88;;
56493;SDS011;42392;42.648;27.652;2024-01-10T09:42:56;17.05;;;8.48;;
56493;SDS011;42392;42.648;27.652;2024-01-10T09:44:58;15.35;;;8.23;;
56493;SDS011;42392;42.648;27.652;2024-01-10T09:47:00;18.80;;;9.68;;
56493;SDS011;42392;42.648;27.652;2024-01-10T09:49:03;28.23;;;12.35;;
56493;SDS011;42392;42.648;27.652;2024-01-10T09:51:05;18.02;;;7.43;;
56493;SDS011;42392;42.648;27.652;2024-01-10T09:53:08;25.90;;;10.95;;
56493;SDS011;42392;42.648;27.652;2024-01-10T09:55:15;27.83;;;10.65;;
56493;SDS011;42392;42.648;27.652;2024-01-10T09:57:17;14.68;;;7.88;;
56493;SDS011;42392;42.648;27.652;2024-01-10T09:59:19;24.73;;;9.43;;
56493;SDS011;42392;42.648;27.652;2024-01-10T10:01:21;21.80;;;8.52;;
56493;SDS011;42392;42.648;27.652;2024-01-10T10:03:24;19.20;;;8.50;;
56493;SDS011;42392;42.648;27.652;2024-01-10T10:05:26;27.25;;;12.52;;
56493;SDS011;42392;42.648;27.652;2024-01-10T10:07:29;19.45;;;9.95;;
56493;SDS011;42392;42.648;27.652;2024-01-10T10:09:31;21.30;;;11.27;;
56493;SDS011;42392;42.648;27.652;2024-01-10T10:11:33;15.98;;;8.77;;
56493;SDS011;42392;42.648;27.652;2024-01-10T10:13:35;13.93;;;6.20;;
56493;SDS011;42392;42.648;27.652;2024-01-10T10:15:43;15.18;;;7.72;;
56493;SDS011;42392;42.648;27.652;2024-01-10T10:17:46;16.70;;;10.48;;
56493;SDS011;42392;42.648;27.652;2024-01-10T10:19:52;16.65;;;9.57;;
56493;SDS011;42392;42.648;27.652;2024-01-10T10:22:09;18.05;;;8.27;;
56493;SDS011;42392;42.648;27.652;2024-01-10T10:24:11;23.83;;;9.30;;
56493;SDS011;42392;42.648;27.652;2024-01-10T10:26:18;30.88;;;15.23;;
56493;SDS011;42392;42.648;27.652;2024-01-10T10:28:27;18.40;;;10.30;;
56493;SDS011;42392;42.648;27.652;2024-01-10T10:30:32;12.60;;;6.45;;
56493;SDS011;42392;42.648;27.652;2024-01-10T10:32:35;16.20;;;8.10;;
56493;SDS011;42392;42.648;27.652;2024-01-10T10:34:37;23.33;;;10.35;;
56493;SDS011;42392;42.648;27.652;2024-01-10T10:36:39;25.60;;;11.73;;
56493;SDS011;42392;42.648;27.652;2024-01-10T10:38:46;18.70;;;8.05;;
56493;SDS011;42392;42.648;27.652;2024-01-10T10:40:49;17.63;;;7.90;;
56493;SDS011;42392;42.648;27.652;2024-01-10T10:42:55;26.33;;;12.00;;
56493;SDS011;42392;42.648;27.652;2024-01-10T10:45:01;12.15;;;6.20;;
56493;SDS011;42392;42.648;27.652;2024-01-10T10:47:05;23.52;;;9.68;;
56493;SDS011;42392;42.648;27.652;2024-01-10T10:49:13;20.70;;;9.38;;
56493;SDS011;42392;42.648;27.652;2024-01-10T10:51:37;20.30;;;8.70;;
56493;SDS011;42392;42.648;27.652;2024-01-10T10:53:40;17.60;;;7.97;;
56493;SDS011;42392;42.648;27.652;2024-01-10T10:55:46;15.52;;;7.90;;
56493;SDS011;42392;42.648;27.652;2024-01-10T10:57:49;17.25;;;7.55;;
56493;SDS011;42392;42.648;27.652;2024-01-10T11:02:09;10.75;;;5.43;;
56493;SDS011;42392;42.648;27.652;2024-01-10T11:04:12;22.23;;;9.65;;
56493;SDS011;42392;42.648;27.652;2024-01-10T11:06:15;22.75;;;10.48;;
56493;SDS011;42392;42.648;27.652;2024-01-10T11:08:19;28.58;;;11.52;;
56493;SDS011;42392;42.648;27.652;2024-01-10T11:10:23;16.52;;;7.32;;
56493;SDS011;42392;42.648;27.652;2024-01-10T11:12:55;23.83;;;9.95;;
56493;SDS011;42392;42.648;27.652;2024-01-10T11:21:22;42.38;;;15.55;;
56493;SDS011;42392;42.648;27.652;2024-01-10T11:25:52;29.73;;;13.60;;
56493;SDS011;42392;42.648;27.652;2024-01-10T11:27:54;27.95;;;15.15;;
56493;SDS011;42392;42.648;27.652;2024-01-10T11:30:04;42.65;;;15.20;;
56493;SDS011;42392;42.648;27.652;2024-01-10T11:32:14;22.48;;;9.90;;
56493;SDS011;42392;42.648;27.652;2024-01-10T11:34:22;30.30;;;11.70;;
56493;SDS011;42392;42.648;27.652;2024-01-10T11:36:27;26.88;;;12.23;;
56493;SDS011;42392;42.648;27.652;2024-01-10T11:38:30;32.33;;;13.38;;
56493;SDS011;42392;42.648;27.652;2024-01-10T11:40:47;25.85;;;11.93;;
56493;SDS011;42392;42.648;27.652;2024-01-10T11:42:50;22.05;;;9.52;;
56493;SDS011;42392;42.648;27.652;2024-01-10T11:44:53;25.50;;;10.20;;
56493;SDS011;42392;42.648;27.652;2024-01-10T11:46:56;18.38;;;8.48;;
56493;SDS011;42392;42.648;27.652;2024-01-10T11:48:59;27.05;;;10.75;;
56493;SDS011;42392;42.648;27.652;2024-01-10T11:51:02;27.90;;;13.00;;
56493;SDS011;42392;42.648;27.652;2024-01-10T11:53:04;30.35;;;11.10;;
56493;SDS011;42392;42.648;27.652;2024-01-10T11:55:07;48.50;;;17.65;;
56493;SDS011;42392;42.648;27.652;2024-01-10T11:57:10;25.60;;;10.95;;
56493;SDS011;42392;42.648;27.652;2024-01-10T11:59:16;60.58;;;19.13;;
56493;SDS011;42392;42.648;27.652;2024-01-10T12:01:20;37.00;;;14.07;;
56493;SDS011;42392;42.648;27.652;2024-01-10T12:03:26;20.40;;;9.65;;
56493;SDS011;42392;42.648;27.652;2024-01-10T12:05:28;54.55;;;19.77;;
56493;SDS011;42392;42.648;27.652;2024-01-10T12:07:31;50.47;;;16.25;;
56493;SDS011;42392;42.648;27.652;2024-01-10T12:09:34;118.10;;;29.98;;
56493;SDS011;42392;42.648;27.652;2024-01-10T12:11:39;33.25;;;12.82;;
56493;SDS011;42392;42.648;27.652;2024-01-10T12:13:43;55.25;;;18.65;;
56493;SDS011;42392;42.648;27.652;2024-01-10T12:15:46;91.22;;;27.77;;
56493;SDS011;42392;42.648;27.652;2024-01-10T12:17:48;66.60;;;25.80;;